Аэропорт: Атырау. Атырау

ICAO: UATG

METAR:
2018/07/16 19:30
UATG 161930Z 16004MPS 5000 BR SCT033CB 26/24 Q0999 R14/19//65 NOSIG RMK QFE751/1002
METAR:
2018/07/16 18:18
TAF UATG 161702Z 1618/1718 28010MPS 9999 BKN020CB TX33/1712Z TN24/1701Z 
      TEMPO 1618/1624 VRB16MPS 3000 -TSRA SQ SCT010 BKN020CB 
      BECMG 1707/1709 22009MPS